RCH3512 ENEV-LIPA
Flight info
| Callsign | RCH3512 |
|---|---|
| Flight time | N/A |
| Altitude | 24000 |
| Route | AMIMO DCT BAMIP P600 NETAV DCT UMSAK DCT LAPSI DCT NEMBA N33 DEKIK DCT BIKRU DCT RAKIT M725 OBANI Z36 PIKIB DCT SUBEN DCT MALUG DCT ROKIB |
| Aircraft | C130/M-SDE2E3FGRY/H |
Departure
| Time | 2026-04-29 09:02 |
|---|---|
| Airport | Harstad/Narvik Airport (ENEV) |
Arrival
| Time | N/A |
|---|---|
| Airport | Aviano Air Base (LIPA) |
| Time | Latitude | Longitude | Altitude | Speed | Heading |
|---|---|---|---|---|---|
| 2026-04-29 08:46 | 68.48812 | 16.68476 | 90 ft | 0 kts | 166° |
| 2026-04-29 08:52 | 68.48811 | 16.68476 | 90 ft | 1 kts | 167° |
| 2026-04-29 08:52 | 68.48803 | 16.68454 | 90 ft | 2 kts | 245° |
| 2026-04-29 08:52 | 68.48822 | 16.68401 | 93 ft | 3 kts | 319° |
| 2026-04-29 08:53 | 68.48838 | 16.68366 | 92 ft | 3 kts | 320° |
| 2026-04-29 08:53 | 68.48852 | 16.68334 | 91 ft | 3 kts | 320° |
| 2026-04-29 08:53 | 68.48874 | 16.68285 | 93 ft | 5 kts | 320° |
| 2026-04-29 08:53 | 68.48892 | 16.68249 | 92 ft | 2 kts | 330° |
| 2026-04-29 08:54 | 68.48902 | 16.68238 | 94 ft | 3 kts | 339° |
| 2026-04-29 08:54 | 68.48940 | 16.68217 | 92 ft | 8 kts | 355° |
| 2026-04-29 08:54 | 68.49004 | 16.68208 | 91 ft | 8 kts | 357° |
| 2026-04-29 08:54 | 68.49049 | 16.68202 | 91 ft | 5 kts | 357° |
| 2026-04-29 08:55 | 68.49089 | 16.68198 | 91 ft | 6 kts | 356° |
| 2026-04-29 08:55 | 68.49147 | 16.68189 | 91 ft | 12 kts | 357° |
| 2026-04-29 08:55 | 68.49242 | 16.68178 | 94 ft | 13 kts | 358° |
| 2026-04-29 08:55 | 68.49322 | 16.68168 | 91 ft | 9 kts | 357° |
| 2026-04-29 08:56 | 68.49379 | 16.68160 | 94 ft | 8 kts | 357° |
| 2026-04-29 08:56 | 68.49434 | 16.68153 | 93 ft | 8 kts | 357° |
| 2026-04-29 08:56 | 68.49490 | 16.68146 | 93 ft | 9 kts | 357° |
| 2026-04-29 08:56 | 68.49550 | 16.68140 | 91 ft | 9 kts | 359° |
| 2026-04-29 08:57 | 68.49611 | 16.68137 | 94 ft | 9 kts | 359° |
| 2026-04-29 08:57 | 68.49676 | 16.68130 | 93 ft | 9 kts | 357° |
| 2026-04-29 08:57 | 68.49741 | 16.68121 | 91 ft | 10 kts | 357° |
| 2026-04-29 08:57 | 68.49808 | 16.68114 | 93 ft | 10 kts | 358° |
| 2026-04-29 08:58 | 68.49874 | 16.68105 | 91 ft | 10 kts | 357° |
| 2026-04-29 08:58 | 68.49944 | 16.68096 | 94 ft | 10 kts | 357° |
| 2026-04-29 08:58 | 68.50016 | 16.68088 | 92 ft | 11 kts | 358° |
| 2026-04-29 08:58 | 68.50090 | 16.68080 | 93 ft | 11 kts | 358° |
| 2026-04-29 08:59 | 68.50167 | 16.68072 | 95 ft | 12 kts | 358° |
| 2026-04-29 08:59 | 68.50250 | 16.68063 | 92 ft | 12 kts | 358° |
| 2026-04-29 08:59 | 68.50333 | 16.68039 | 96 ft | 12 kts | 343° |
| 2026-04-29 08:59 | 68.50379 | 16.67920 | 94 ft | 7 kts | 289° |
| 2026-04-29 09:00 | 68.50380 | 16.67815 | 93 ft | 5 kts | 264° |
| 2026-04-29 09:00 | 68.50365 | 16.67732 | 97 ft | 6 kts | 228° |
| 2026-04-29 09:00 | 68.50317 | 16.67690 | 93 ft | 7 kts | 187° |
| 2026-04-29 09:00 | 68.50303 | 16.67691 | 93 ft | 0 kts | 178° |
| 2026-04-29 09:01 | 68.50216 | 16.67701 | 94 ft | 50 kts | 177° |
| 2026-04-29 09:01 | 68.49572 | 16.67807 | 226 ft | 121 kts | 176° |
| 2026-04-29 09:01 | 68.48619 | 16.67718 | 637 ft | 146 kts | 184° |
| 2026-04-29 09:02 | 68.47572 | 16.67290 | 1222 ft | 157 kts | 190° |
| 2026-04-29 09:02 | 68.46469 | 16.66567 | 1727 ft | 171 kts | 196° |
| 2026-04-29 09:02 | 68.45377 | 16.65461 | 1743 ft | 168 kts | 203° |
| 2026-04-29 09:02 | 68.44295 | 16.64405 | 1933 ft | 165 kts | 194° |
| 2026-04-29 09:03 | 68.43174 | 16.63992 | 2592 ft | 163 kts | 184° |
| 2026-04-29 09:03 | 68.42035 | 16.64229 | 3403 ft | 166 kts | 177° |
| 2026-04-29 09:03 | 68.40871 | 16.65005 | 4053 ft | 185 kts | 160° |
| 2026-04-29 09:03 | 68.39837 | 16.67325 | 4185 ft | 200 kts | 131° |
| 2026-04-29 09:04 | 68.39137 | 16.70417 | 2042 ft | 185 kts | 124° |
| 2026-04-29 09:04 | 68.38993 | 16.71292 | 509 ft | 0 kts | 300° |